createdAt,value
2019-05-26T00:02:23.598Z,6.77
2019-05-26T00:04:57.025Z,7.07
2019-05-26T00:07:31.081Z,6.73
2019-05-26T00:10:08.201Z,7.00
2019-05-26T00:12:42.040Z,7.20
2019-05-26T00:15:16.304Z,7.63
2019-05-26T00:17:49.735Z,7.97
2019-05-26T00:20:23.151Z,6.63
2019-05-26T00:22:56.579Z,7.60
2019-05-26T00:25:29.991Z,7.40
2019-05-26T00:28:03.503Z,9.00
2019-05-26T00:30:36.924Z,10.90
2019-05-26T00:33:10.365Z,8.40
2019-05-26T00:35:43.775Z,7.23
2019-05-26T00:38:17.204Z,6.90
2019-05-26T00:40:50.614Z,6.70
2019-05-26T00:43:24.048Z,6.60
2019-05-26T00:45:57.461Z,7.17
2019-05-26T00:48:30.896Z,8.90
2019-05-26T00:51:04.587Z,8.83
2019-05-26T00:53:38.027Z,8.57
2019-05-26T00:56:11.447Z,9.97
2019-05-26T00:58:44.879Z,8.87
2019-05-26T01:01:18.300Z,7.93
2019-05-26T01:03:51.736Z,8.00
2019-05-26T01:06:25.152Z,8.13
2019-05-26T01:08:58.575Z,7.90
2019-05-26T01:11:31.991Z,7.40
2019-05-26T01:14:06.170Z,7.30
2019-05-26T01:16:39.589Z,7.57
2019-05-26T01:19:13.019Z,9.87
2019-05-26T01:21:46.435Z,9.73
2019-05-26T01:24:19.863Z,8.60
2019-05-26T01:26:53.415Z,10.00
2019-05-26T01:29:26.883Z,9.13
2019-05-26T01:32:00.292Z,7.37
2019-05-26T01:34:33.795Z,8.07
2019-05-26T01:37:07.215Z,8.27
2019-05-26T01:39:40.646Z,7.90
2019-05-26T01:42:14.069Z,7.50
2019-05-26T01:44:47.559Z,7.90
2019-05-26T01:47:20.986Z,8.40
2019-05-26T01:49:54.407Z,7.93
2019-05-26T01:52:27.815Z,7.57
2019-05-26T01:55:01.260Z,6.20
2019-05-26T01:57:34.748Z,7.07
2019-05-26T02:00:09.018Z,7.10
2019-05-26T02:02:42.442Z,7.97
2019-05-26T02:05:15.871Z,8.27
2019-05-26T02:07:49.292Z,6.27
2019-05-26T02:10:22.900Z,6.47
2019-05-26T02:12:56.316Z,6.47
2019-05-26T02:15:30.584Z,6.53
2019-05-26T02:18:05.020Z,6.60
2019-05-26T02:20:38.511Z,6.60
2019-05-26T02:23:12.227Z,6.93
2019-05-26T02:25:45.675Z,8.60
2019-05-26T02:28:19.099Z,7.60
2019-05-26T02:30:52.542Z,8.57
2019-05-26T02:33:25.955Z,7.17
2019-05-26T02:35:59.392Z,8.33
2019-05-26T02:38:32.862Z,7.50
2019-05-26T02:41:06.652Z,6.90
2019-05-26T02:43:40.078Z,6.73
2019-05-26T02:46:13.510Z,6.30
2019-05-26T02:48:46.920Z,6.63
2019-05-26T02:51:20.354Z,6.70
2019-05-26T02:53:53.782Z,6.43
2019-05-26T02:56:27.650Z,6.57
2019-05-26T02:59:01.059Z,6.30
2019-05-26T03:01:34.875Z,6.53
2019-05-26T03:04:08.753Z,6.53
2019-05-26T03:06:42.925Z,6.80
2019-05-26T03:09:23.376Z,7.03
2019-05-26T03:11:54.442Z,7.20
2019-05-26T03:14:29.668Z,6.27
2019-05-26T03:17:03.834Z,6.87
2019-05-26T03:19:39.272Z,6.17
2019-05-26T03:22:14.627Z,6.20
2019-05-26T03:24:51.139Z,6.30
2019-05-26T03:27:24.560Z,6.30
2019-05-26T03:29:57.983Z,6.70
2019-05-26T03:32:31.410Z,6.20
2019-05-26T03:35:10.039Z,6.40
2019-05-26T03:37:43.527Z,6.43
2019-05-26T03:40:16.948Z,5.87
2019-05-26T03:42:50.432Z,6.30
2019-05-26T03:45:38.583Z,6.43
2019-05-26T03:48:12.265Z,7.43
2019-05-26T03:50:45.702Z,6.50
2019-05-26T03:53:19.121Z,6.27
2019-05-26T03:55:52.553Z,6.60
2019-05-26T03:58:25.968Z,6.67
2019-05-26T04:00:59.405Z,7.07
2019-05-26T04:03:32.819Z,6.60
2019-05-26T04:06:06.258Z,6.60
2019-05-26T04:08:39.663Z,6.17
2019-05-26T04:11:13.094Z,6.67
2019-05-26T04:13:46.509Z,6.40
2019-05-26T04:16:19.938Z,6.70
2019-05-26T04:18:53.351Z,7.33
2019-05-26T04:21:26.784Z,7.23
2019-05-26T04:24:00.223Z,7.20
2019-05-26T04:26:33.719Z,6.50
2019-05-26T04:29:07.140Z,6.00
2019-05-26T04:31:40.556Z,6.60
2019-05-26T04:34:13.963Z,6.30
2019-05-26T04:36:47.410Z,6.50
2019-05-26T04:39:21.210Z,6.53
2019-05-26T04:41:54.829Z,7.13
2019-05-26T04:44:28.240Z,6.07
2019-05-26T04:47:01.677Z,6.00
2019-05-26T04:49:37.675Z,6.63
2019-05-26T04:52:10.275Z,8.20
2019-05-26T04:54:43.688Z,7.20
2019-05-26T04:57:17.132Z,7.50
2019-05-26T04:59:50.556Z,6.70
2019-05-26T05:02:24.056Z,7.07
2019-05-26T05:04:57.467Z,6.80
2019-05-26T05:07:30.902Z,6.10
2019-05-26T05:10:06.157Z,7.13
2019-05-26T05:12:39.604Z,6.83
2019-05-26T05:15:13.260Z,49.73
2019-05-26T05:17:46.698Z,25.57
2019-05-26T05:20:20.115Z,9.60
2019-05-26T05:22:53.538Z,7.47
2019-05-26T05:25:26.955Z,7.67
2019-05-26T05:28:00.483Z,7.10
2019-05-26T05:30:33.977Z,6.53
2019-05-26T05:33:07.411Z,9.20
2019-05-26T05:35:40.827Z,8.57
2019-05-26T05:38:14.268Z,7.40
2019-05-26T05:40:59.077Z,7.10
2019-05-26T05:43:22.835Z,6.87
2019-05-26T05:45:56.248Z,7.00
2019-05-26T05:48:29.696Z,6.70
2019-05-26T05:51:03.122Z,6.70
2019-05-26T05:53:36.535Z,6.97
2019-05-26T05:56:10.003Z,7.30
2019-05-26T05:58:43.498Z,7.20
2019-05-26T06:01:16.982Z,7.47
2019-05-26T06:03:50.401Z,6.73
2019-05-26T06:06:23.827Z,6.50
2019-05-26T06:08:57.243Z,6.30
2019-05-26T06:11:30.691Z,6.07
2019-05-26T06:14:04.598Z,5.83
2019-05-26T06:16:38.016Z,5.90
2019-05-26T06:19:11.438Z,5.47
2019-05-26T06:21:45.488Z,5.80
2019-05-26T06:24:18.892Z,5.67
2019-05-26T06:26:52.314Z,5.40
2019-05-26T06:29:25.735Z,5.30
2019-05-26T06:31:59.527Z,5.10
2019-05-26T06:34:33.267Z,5.37
2019-05-26T06:37:06.699Z,4.60
2019-05-26T06:39:40.130Z,4.63
2019-05-26T06:42:13.711Z,4.77
2019-05-26T06:44:53.563Z,8.63
2019-05-26T06:47:22.603Z,6.47
2019-05-26T06:49:56.027Z,4.73
2019-05-26T06:52:29.452Z,4.80
2019-05-26T06:55:03.241Z,5.10
2019-05-26T06:57:36.669Z,7.93
2019-05-26T07:00:10.719Z,5.77
2019-05-26T07:02:44.159Z,5.20
2019-05-26T07:05:18.723Z,4.87
2019-05-26T07:07:52.548Z,5.27
2019-05-26T07:10:26.314Z,4.50
2019-05-26T07:12:59.740Z,4.93
2019-05-26T07:15:33.151Z,4.63
2019-05-26T07:18:06.596Z,4.73
2019-05-26T07:20:40.158Z,4.73
2019-05-26T07:23:13.714Z,4.80
2019-05-26T07:25:47.600Z,4.60
2019-05-26T07:28:21.032Z,5.00
2019-05-26T07:30:54.446Z,4.83
2019-05-26T07:33:27.875Z,4.40
2019-05-26T07:36:01.373Z,4.63
2019-05-26T07:38:34.808Z,4.63
2019-05-26T07:41:08.220Z,4.80
2019-05-26T07:43:41.652Z,4.70
2019-05-26T07:46:15.073Z,4.90
2019-05-26T07:48:48.675Z,4.50
2019-05-26T07:51:22.092Z,4.60
2019-05-26T07:53:56.332Z,4.53
2019-05-26T07:56:30.028Z,4.77
2019-05-26T07:59:03.587Z,4.63
2019-05-26T08:01:37.000Z,4.70
2019-05-26T08:04:10.439Z,4.60
2019-05-26T08:06:43.925Z,4.47
2019-05-26T08:09:17.346Z,4.50
2019-05-26T08:11:50.774Z,4.30
2019-05-26T08:14:24.568Z,4.37
2019-05-26T08:16:57.988Z,3.90
2019-05-26T08:19:31.481Z,4.50
2019-05-26T08:22:05.086Z,3.93
2019-05-26T08:24:38.511Z,4.97
2019-05-26T08:27:11.930Z,4.37
2019-05-26T08:29:45.358Z,4.07
2019-05-26T08:32:18.777Z,4.80
2019-05-26T08:34:52.195Z,3.83
2019-05-26T08:37:25.609Z,3.87
2019-05-26T08:40:00.676Z,3.83
2019-05-26T08:42:44.091Z,3.77
2019-05-26T08:45:09.239Z,3.77
2019-05-26T08:47:42.648Z,3.97
2019-05-26T08:50:17.115Z,3.40
2019-05-26T08:52:50.602Z,3.13
2019-05-26T08:55:24.033Z,3.30
2019-05-26T08:57:57.471Z,2.93
2019-05-26T09:00:31.274Z,3.00
2019-05-26T09:03:04.768Z,3.33
2019-05-26T09:05:38.187Z,2.87
2019-05-26T09:08:11.616Z,3.10
2019-05-26T09:10:45.127Z,3.03
2019-05-26T09:13:18.568Z,3.30
2019-05-26T09:15:51.971Z,3.20
2019-05-26T09:18:25.411Z,3.00
2019-05-26T09:20:58.807Z,3.10
2019-05-26T09:23:32.239Z,3.20
2019-05-26T09:26:05.665Z,3.20
2019-05-26T09:28:39.083Z,2.97
2019-05-26T09:31:12.502Z,3.17
2019-05-26T09:33:45.933Z,3.30
2019-05-26T09:36:19.337Z,3.10
2019-05-26T09:38:52.767Z,2.90
2019-05-26T09:41:26.180Z,2.90
2019-05-26T09:43:59.616Z,3.00
2019-05-26T09:46:33.028Z,3.17
2019-05-26T09:49:06.465Z,3.00
2019-05-26T09:51:39.873Z,3.20
2019-05-26T09:54:13.310Z,2.90
2019-05-26T09:56:46.733Z,3.00
2019-05-26T09:59:20.157Z,2.70
2019-05-26T10:01:53.592Z,2.67
2019-05-26T10:04:27.124Z,2.90
2019-05-26T10:07:00.540Z,2.70
2019-05-26T10:09:34.110Z,2.97
2019-05-26T10:12:07.515Z,3.03
2019-05-26T10:14:40.969Z,2.80
2019-05-26T10:17:14.377Z,2.87
2019-05-26T10:19:47.880Z,3.20
2019-05-26T10:22:21.295Z,2.80
2019-05-26T10:24:54.724Z,2.80
2019-05-26T10:27:28.138Z,2.90
2019-05-26T10:30:01.681Z,3.23
2019-05-26T10:32:35.105Z,2.50
2019-05-26T10:35:09.163Z,2.70
2019-05-26T10:37:42.579Z,2.60
2019-05-26T10:40:17.147Z,2.80
2019-05-26T10:42:50.569Z,2.43
2019-05-26T10:45:24.056Z,2.60
2019-05-26T10:47:57.475Z,2.87
2019-05-26T10:50:30.923Z,2.90
2019-05-26T10:53:04.413Z,2.90
2019-05-26T10:55:37.854Z,2.77
2019-05-26T10:58:11.250Z,3.23
2019-05-26T11:00:44.687Z,5.30
2019-05-26T11:03:18.100Z,4.00
2019-05-26T11:05:51.536Z,3.97
2019-05-26T11:08:24.955Z,3.10
2019-05-26T11:10:58.384Z,3.10
2019-05-26T11:13:31.800Z,3.57
2019-05-26T11:16:05.687Z,2.90
2019-05-26T11:18:39.127Z,2.90
2019-05-26T11:21:12.706Z,3.00
2019-05-26T11:23:46.102Z,3.03
2019-05-26T11:26:19.543Z,2.90
2019-05-26T11:28:52.964Z,2.73
2019-05-26T11:31:26.391Z,3.50
2019-05-26T11:33:59.816Z,2.80
2019-05-26T11:36:33.270Z,2.87
2019-05-26T11:39:07.652Z,3.57
2019-05-26T11:41:41.079Z,4.00
2019-05-26T11:44:17.865Z,3.30
2019-05-26T11:46:49.655Z,3.47
2019-05-26T11:49:23.079Z,3.00
2019-05-26T11:51:56.513Z,2.80
2019-05-26T11:54:29.931Z,3.93
2019-05-26T11:57:03.355Z,3.40
2019-05-26T11:59:36.879Z,2.80
2019-05-26T12:02:10.298Z,3.37
2019-05-26T12:04:43.725Z,3.97
2019-05-26T12:07:17.144Z,2.97
2019-05-26T12:09:50.572Z,4.07
2019-05-26T12:12:23.991Z,3.40
2019-05-26T12:14:57.438Z,3.00
2019-05-26T12:17:30.858Z,2.90
2019-05-26T12:20:06.300Z,2.80
2019-05-26T12:22:39.785Z,3.27
2019-05-26T12:25:14.068Z,3.23
2019-05-26T12:27:47.769Z,3.00
2019-05-26T12:30:23.203Z,3.00
2019-05-26T12:32:56.625Z,3.17
2019-05-26T12:35:31.689Z,2.50
2019-05-26T12:38:05.103Z,2.90
2019-05-26T12:40:38.524Z,3.00
2019-05-26T12:43:12.411Z,3.20
2019-05-26T12:45:45.843Z,3.07
2019-05-26T12:48:19.278Z,2.70
2019-05-26T12:50:52.700Z,2.67
2019-05-26T12:53:26.196Z,3.00
2019-05-26T12:55:59.638Z,2.97
2019-05-26T12:58:33.110Z,2.73
2019-05-26T13:01:06.553Z,2.80
2019-05-26T13:03:39.987Z,2.83
2019-05-26T13:06:13.427Z,3.03
2019-05-26T13:08:46.838Z,2.83
2019-05-26T13:11:22.764Z,3.03
2019-05-26T13:13:55.400Z,2.80
2019-05-26T13:16:28.847Z,2.87
2019-05-26T13:19:03.040Z,2.80
2019-05-26T13:21:36.467Z,2.90
2019-05-26T13:24:09.919Z,3.77
2019-05-26T13:26:43.351Z,2.87
2019-05-26T13:29:16.760Z,2.77
2019-05-26T13:31:50.205Z,3.57
2019-05-26T13:34:23.618Z,2.90
2019-05-26T13:36:57.036Z,2.70
2019-05-26T13:39:30.506Z,2.43
2019-05-26T13:42:04.279Z,2.77
2019-05-26T13:44:37.704Z,2.70
2019-05-26T13:47:25.100Z,2.93
2019-05-26T13:49:46.271Z,2.77
2019-05-26T13:52:19.704Z,2.80
2019-05-26T13:54:53.131Z,2.77
2019-05-26T13:57:26.565Z,2.83
2019-05-26T13:59:59.976Z,3.07
2019-05-26T14:02:33.412Z,2.90
2019-05-26T14:05:10.448Z,2.80
2019-05-26T14:07:43.880Z,3.00
2019-05-26T14:10:20.375Z,2.80
2019-05-26T14:12:53.804Z,3.20
2019-05-26T14:15:37.457Z,2.80
2019-05-26T14:18:02.983Z,2.90
2019-05-26T14:20:39.013Z,2.60
2019-05-26T14:23:12.445Z,2.83
2019-05-26T14:25:45.864Z,2.53
2019-05-26T14:28:19.293Z,2.80
2019-05-26T14:30:52.712Z,2.50
2019-05-26T14:33:26.152Z,2.80
2019-05-26T14:35:59.581Z,2.57
2019-05-26T14:38:42.743Z,2.67
2019-05-26T14:41:08.155Z,2.83
2019-05-26T14:43:41.581Z,3.10
2019-05-26T14:46:15.000Z,2.93
2019-05-26T14:48:48.418Z,3.00
2019-05-26T14:51:21.839Z,2.87
2019-05-26T14:53:55.259Z,3.40
2019-05-26T14:56:28.684Z,2.80
2019-05-26T14:59:02.136Z,2.80
2019-05-26T15:01:35.612Z,2.90
2019-05-26T15:04:09.158Z,2.90
2019-05-26T15:06:42.608Z,2.73
2019-05-26T15:09:24.719Z,3.13
2019-05-26T15:11:51.171Z,2.50
2019-05-26T15:14:25.363Z,2.87
2019-05-26T15:16:58.783Z,3.00
2019-05-26T15:19:32.199Z,2.90
2019-05-26T15:22:06.927Z,3.30
2019-05-26T15:24:40.567Z,4.13
2019-05-26T15:27:14.051Z,4.30
2019-05-26T15:29:47.460Z,3.80
2019-05-26T15:32:20.893Z,4.13
2019-05-26T15:34:54.340Z,3.20
2019-05-26T15:37:27.820Z,4.50
2019-05-26T15:40:01.248Z,3.60
2019-05-26T15:42:34.839Z,3.00
2019-05-26T15:45:10.015Z,4.57
2019-05-26T15:47:43.435Z,3.73
2019-05-26T15:50:17.557Z,3.70
2019-05-26T15:52:50.988Z,3.67
2019-05-26T15:55:24.479Z,3.77
2019-05-26T15:57:57.908Z,3.90
2019-05-26T16:00:31.318Z,3.70
2019-05-26T16:03:04.820Z,4.73
2019-05-26T16:05:38.235Z,4.93
2019-05-26T16:08:11.664Z,3.80
2019-05-26T16:10:45.079Z,8.63
2019-05-26T16:13:18.511Z,4.10
2019-05-26T16:15:51.934Z,3.83
2019-05-26T16:18:25.356Z,4.10
2019-05-26T16:21:03.041Z,4.07
2019-05-26T16:23:33.924Z,4.27
2019-05-26T16:26:07.355Z,3.93
2019-05-26T16:28:40.791Z,3.27
2019-05-26T16:31:14.224Z,4.60
2019-05-26T16:33:47.705Z,5.07
2019-05-26T16:36:21.520Z,3.97
2019-05-26T16:38:55.335Z,3.50
2019-05-26T16:41:28.751Z,3.50
2019-05-26T16:44:02.186Z,3.50
2019-05-26T16:46:35.595Z,3.40
2019-05-26T16:49:09.067Z,3.50
2019-05-26T16:51:42.487Z,3.60
2019-05-26T16:54:15.919Z,3.30
2019-05-26T16:56:51.722Z,3.30
2019-05-26T16:59:25.135Z,3.80
2019-05-26T17:01:58.553Z,3.20
2019-05-26T17:04:31.980Z,3.70
2019-05-26T17:07:05.393Z,3.20
2019-05-26T17:09:38.817Z,3.80
2019-05-26T17:12:12.289Z,3.30
2019-05-26T17:14:45.704Z,3.50
2019-05-26T17:17:19.115Z,3.10
2019-05-26T17:19:52.961Z,3.40
2019-05-26T17:22:26.531Z,3.73
2019-05-26T17:25:00.183Z,3.63
2019-05-26T17:27:33.767Z,3.43
2019-05-26T17:30:08.531Z,3.30
2019-05-26T17:32:42.026Z,3.57
2019-05-26T17:35:15.876Z,3.30
2019-05-26T17:37:49.298Z,3.40
2019-05-26T17:40:23.563Z,3.30
2019-05-26T17:42:56.981Z,3.30
2019-05-26T17:45:30.408Z,2.90
2019-05-26T17:48:03.831Z,3.30
2019-05-26T17:50:37.248Z,3.50
2019-05-26T17:53:10.667Z,2.90
2019-05-26T17:55:44.088Z,2.93
2019-05-26T17:58:17.521Z,3.00
2019-05-26T18:00:51.527Z,2.93
2019-05-26T18:03:24.952Z,2.77
2019-05-26T18:05:58.359Z,3.00
2019-05-26T18:08:31.789Z,2.90
2019-05-26T18:11:05.204Z,2.80
2019-05-26T18:13:38.622Z,2.90
2019-05-26T18:16:12.039Z,2.60
2019-05-26T18:18:45.467Z,2.90
2019-05-26T18:21:18.882Z,2.70
2019-05-26T18:23:52.307Z,2.90
2019-05-26T18:26:25.729Z,2.90
2019-05-26T18:28:59.158Z,2.60
2019-05-26T18:31:32.579Z,2.67
2019-05-26T18:34:06.019Z,2.67
2019-05-26T18:36:39.448Z,2.80
2019-05-26T18:39:12.927Z,2.80
2019-05-26T18:41:46.364Z,2.90
2019-05-26T18:44:19.788Z,2.80
2019-05-26T18:46:53.796Z,3.43
2019-05-26T18:49:27.508Z,2.90
2019-05-26T18:52:00.930Z,2.93
2019-05-26T18:54:34.384Z,2.77
2019-05-26T18:57:07.792Z,2.60
2019-05-26T18:59:41.220Z,2.90
2019-05-26T19:02:14.636Z,2.97
2019-05-26T19:04:48.073Z,2.93
2019-05-26T19:07:21.480Z,2.97
2019-05-26T19:09:54.912Z,2.80
2019-05-26T19:12:28.323Z,3.17
2019-05-26T19:15:01.776Z,3.30
2019-05-26T19:17:35.188Z,3.23
2019-05-26T19:20:16.129Z,3.23
2019-05-26T19:22:45.091Z,3.90
2019-05-26T19:25:18.787Z,3.43
2019-05-26T19:27:52.204Z,3.20
2019-05-26T19:30:25.631Z,3.50
2019-05-26T19:32:59.051Z,2.70
2019-05-26T19:35:32.479Z,3.03
2019-05-26T19:38:05.916Z,3.33
2019-05-26T19:40:39.409Z,3.50
2019-05-26T19:43:12.806Z,3.80
2019-05-26T19:45:46.243Z,3.90
2019-05-26T19:48:34.603Z,3.57
2019-05-26T19:50:54.871Z,3.73
2019-05-26T19:53:28.363Z,5.27
2019-05-26T19:56:01.792Z,3.80
2019-05-26T19:58:35.212Z,3.27
2019-05-26T20:01:08.636Z,3.80
2019-05-26T20:03:42.051Z,3.27
2019-05-26T20:06:15.484Z,3.73
2019-05-26T20:08:48.918Z,4.10
2019-05-26T20:11:22.405Z,3.50
2019-05-26T20:13:55.819Z,3.37
2019-05-26T20:16:30.804Z,3.73
2019-05-26T20:19:04.963Z,6.37
2019-05-26T20:21:38.400Z,4.37
2019-05-26T20:24:11.810Z,3.83
2019-05-26T20:26:45.239Z,4.80
2019-05-26T20:29:18.656Z,5.50
2019-05-26T20:31:52.091Z,6.00
2019-05-26T20:34:25.512Z,6.47
2019-05-26T20:36:58.927Z,5.80
2019-05-26T20:39:32.335Z,3.73
2019-05-26T20:42:05.907Z,3.27
2019-05-26T20:44:39.343Z,2.90
2019-05-26T20:47:12.776Z,3.10
2019-05-26T20:49:46.200Z,3.60
2019-05-26T20:52:19.610Z,3.70
2019-05-26T20:54:53.056Z,3.60
2019-05-26T20:57:26.472Z,3.57
2019-05-26T20:59:59.958Z,3.07
2019-05-26T21:02:33.480Z,3.40
2019-05-26T21:05:07.584Z,3.20
2019-05-26T21:07:41.010Z,3.30
2019-05-26T21:10:14.895Z,2.77
2019-05-26T21:12:48.310Z,3.17
2019-05-26T21:15:21.744Z,3.40
2019-05-26T21:17:55.163Z,3.20
2019-05-26T21:20:28.610Z,2.90
2019-05-26T21:23:02.032Z,3.33
2019-05-26T21:25:35.447Z,3.40
2019-05-26T21:28:08.863Z,3.40
2019-05-26T21:30:42.291Z,3.63
2019-05-26T21:33:15.712Z,3.90
2019-05-26T21:35:49.140Z,3.60
2019-05-26T21:38:22.552Z,3.73
2019-05-26T21:40:55.984Z,3.70
2019-05-26T21:43:29.404Z,3.90
2019-05-26T21:46:02.838Z,3.97
2019-05-26T21:48:36.256Z,3.80
2019-05-26T21:51:09.687Z,4.13
2019-05-26T21:53:43.120Z,4.47
2019-05-26T21:56:16.531Z,4.17
2019-05-26T21:58:49.948Z,4.00
2019-05-26T22:01:23.388Z,4.40
2019-05-26T22:03:58.435Z,4.20
2019-05-26T22:06:31.908Z,4.23
2019-05-26T22:09:07.960Z,4.50
2019-05-26T22:11:41.387Z,4.40
2019-05-26T22:14:14.807Z,4.60
2019-05-26T22:16:48.224Z,4.40
2019-05-26T22:19:21.640Z,4.40
2019-05-26T22:21:55.074Z,4.23
2019-05-26T22:24:28.486Z,4.80
2019-05-26T22:27:01.913Z,4.30
2019-05-26T22:29:35.329Z,4.60
2019-05-26T22:32:08.810Z,4.30
2019-05-26T22:34:42.231Z,4.67
2019-05-26T22:37:15.661Z,4.90
2019-05-26T22:39:49.091Z,4.30
2019-05-26T22:42:22.523Z,4.27
2019-05-26T22:44:55.945Z,4.60
2019-05-26T22:47:29.376Z,3.83
2019-05-26T22:50:03.659Z,4.03
2019-05-26T22:52:37.169Z,4.13
2019-05-26T22:55:10.919Z,4.50
2019-05-26T22:57:44.344Z,4.13
2019-05-26T23:00:18.701Z,4.63
2019-05-26T23:02:52.119Z,4.17
2019-05-26T23:05:25.553Z,4.27
2019-05-26T23:07:58.975Z,4.20
2019-05-26T23:10:32.391Z,4.47
2019-05-26T23:13:05.825Z,4.60
2019-05-26T23:15:39.240Z,4.03
2019-05-26T23:18:12.679Z,4.43
2019-05-26T23:20:46.079Z,4.00
2019-05-26T23:23:19.510Z,4.20
2019-05-26T23:25:52.911Z,4.40
2019-05-26T23:28:26.352Z,4.20
2019-05-26T23:30:59.773Z,4.80
2019-05-26T23:33:33.200Z,4.53
2019-05-26T23:36:06.602Z,4.50
2019-05-26T23:38:40.041Z,4.93
2019-05-26T23:41:13.467Z,4.07
2019-05-26T23:43:47.091Z,4.10
2019-05-26T23:46:20.502Z,4.57
2019-05-26T23:48:53.927Z,4.20
2019-05-26T23:51:27.346Z,4.43
2019-05-26T23:54:00.796Z,4.60
2019-05-26T23:56:34.299Z,5.00
2019-05-26T23:59:07.715Z,4.70
